Wetterstation Vordersexau
Wetterdaten: November 2016
Datum Temp. A. Feuchte A. Luftdruck Regen Wind Richtung Taupunkt Windchill Windben
01.11.2016 9,9 C 74 % 1018,0 hPa 0,0 l/m 0,2 km/h O 5,4 C 9,9 C 0,1 km/h
02.11.2016 8,1 C 84 % 1017,4 hPa 0,0 l/m 0,3 km/h W 5,5 C 8,0 C 0,2 km/h
03.11.2016 5,6 C 74 % 1019,1 hPa 0,0 l/m 0,3 km/h W-NW 1,1 C 5,6 C 0,2 km/h
04.11.2016 6,1 C 78 % 1012,3 hPa 0,0 l/m 0,0 km/h W-NW 2,4 C 6,1 C 0,0 km/h
05.11.2016 9,9 C 82 % 1000,7 hPa 10,9 l/m 0,2 km/h N 7,0 C 9,9 C 0,1 km/h
06.11.2016 5,4 C 83 % 1001,1 hPa 4,7 l/m 0,9 km/h O-SO 2,7 C 5,3 C 0,5 km/h
07.11.2016 3,2 C 83 % 1005,8 hPa 1,0 l/m 0,7 km/h SO 0,5 C 3,1 C 0,4 km/h
08.11.2016 1,6 C 83 % 1008,2 hPa 0,5 l/m 0,8 km/h O-SO -1,0 C 1,4 C 0,5 km/h
09.11.2016 5,1 C 80 % 1003,7 hPa 2,6 l/m 7,2 km/h SO 1,9 C 2,6 C 4,0 km/h
10.11.2016 7,3 C 84 % 1006,9 hPa 4,1 l/m 12,9 km/h SW 4,8 C 2,9 C 7,2 km/h
11.11.2016 5,7 C 85 % 1012,3 hPa 6,7 l/m 2,3 km/h W-NW 3,3 C 5,0 C 1,3 km/h
12.11.2016 3,9 C 84 % 1020,1 hPa 1,6 l/m 0,0 km/h W-NW 1,4 C 3,9 C 0,0 km/h
13.11.2016 3,3 C 83 % 1021,0 hPa 0,0 l/m 0,0 km/h W 0,7 C 3,3 C 0,0 km/h
14.11.2016 0,8 C 85 % 1027,9 hPa 0,0 l/m 0,0 km/h W -1,5 C 0,8 C 0,0 km/h
15.11.2016 4,3 C 80 % 1028,0 hPa 0,5 l/m 0,1 km/h SO 1,0 C 4,3 C 0,0 km/h
16.11.2016 9,1 C 82 % 1020,3 hPa 5,2 l/m 7,2 km/h O-SO 6,2 C 7,0 C 4,0 km/h
17.11.2016 11,2 C 82 % 1011,7 hPa 0,0 l/m 15,6 km/h SW 8,2 C 7,0 C 8,7 km/h
18.11.2016 10,8 C 79 % 1004,4 hPa 9,3 l/m 8,8 km/h S 7,3 C 8,6 C 4,9 km/h
19.11.2016 6,4 C 83 % 1008,3 hPa 4,1 l/m 5,6 km/h O-SO 3,6 C 4,4 C 3,1 km/h
20.11.2016 8,7 C 72 % 1002,9 hPa 0,0 l/m 2,8 km/h O-NO 3,3 C 8,2 C 1,6 km/h
21.11.2016 7,5 C 81 % 1001,0 hPa 0,0 l/m 0,5 km/h O-SO 4,5 C 7,4 C 0,3 km/h
22.11.2016 8,8 C 83 % 1008,6 hPa 0,0 l/m 0,0 km/h N 6,0 C 8,8 C 0,0 km/h
23.11.2016 6,5 C 79 % 1012,7 hPa 0,0 l/m 0,0 km/h O-NO 3,1 C 6,5 C 0,0 km/h
24.11.2016 6,3 C 73 % 1011,8 hPa 0,0 l/m 0,0 km/h W 1,9 C 6,3 C 0,0 km/h
25.11.2016 6,2 C 79 % 1011,7 hPa 0,0 l/m 0,1 km/h W 2,8 C 6,2 C 0,0 km/h
26.11.2016 7,5 C 86 % 1014,6 hPa 0,0 l/m 0,0 km/h W-NW 5,3 C 7,5 C 0,0 km/h
27.11.2016 6,2 C 83 % 1015,0 hPa 0,0 l/m 0,1 km/h W-NW 3,6 C 6,2 C 0,0 km/h
28.11.2016 4,4 C 67 % 1019,5 hPa 0,0 l/m 0,4 km/h N-NO -1,6 C 4,4 C 0,2 km/h
29.11.2016 -0,4 C 70 % 1027,1 hPa 0,0 l/m 0,0 km/h W-NW -5,5 C -0,4 C 0,0 km/h
30.11.2016 0,1 C 75 % 1030,4 hPa 0,0 l/m 0,1 km/h O-SO -4,2 C 0,1 C 0,0 km/h
Min-Datum 29.11.16 20.11.16 05.11.16 12 Tage 01.11.16 - 29.11.16 29.11.16 01.11.16
Min-Zeit 08:10 15:10 13:10 - 00:10 - 08:10 08:10 00:10
Minimum -6,4 C 41 % 997,5 hPa - 0,0 km/h - -9,0 C -6,4 C 0,0 km/h
Max-Datum 01.11.16 12.11.16 30.11.16 05.11.16 17.11.16 - 01.11.16 01.11.16 17.11.16
Max-Zeit 09:10 21:10 08:10 13:10 12:10 - 08:10 09:10 12:10
Maximum 22,6 C 87 % 1032,0 hPa 10,9 l/m 45,4 km/h
SW
- 12,6 C 22,6 C 25,2 km/h
SW
Durchschnitt 6,0 C 80 % 1013,4 hPa #51,3 l/m 2,2 km/h W-NW 2,7 C 5,3 C 1,2 km/h

Durchschnitt Minimum Temp.1,9 C
Durchschnitt Maximum Temp.11,4 C
www.sexauwetter.de